< < Back
Terminal Aerodrome Forecast


Current Version              Previous Versions:   1  2  3  4  5  6  7  8  9  

Terminal Aerodrome Forecast

147
FTUS42 KILM 010340 AAA
TAFILM
TAF AMD
KILM 010340Z 0104/0124 21010G20KT P6SM SKC
     FM010600 34007KT P6SM SCT050 SCT160 BKN250
     FM011400 02012KT P6SM SCT250=



Latest METAR

582
SAUS70 KWBC 010800 RRK
MTRILM
METAR KILM 010753Z AUTO 25009KT 10SM CLR 16/12 A2983 RMK AO2 SLP102
T01610122


USA.gov is the U.S. government's official web portal to all federal, state and local government web resources and services.